sensor_id;sensor_type;location;lat;lon;timestamp;temperature;humidity
76333;DHT22;71254;53.010;6.508;2024-02-21T00:01:30;9.60;99.90
76333;DHT22;71254;53.010;6.508;2024-02-21T00:03:56;9.60;99.90
76333;DHT22;71254;53.010;6.508;2024-02-21T00:06:22;9.70;99.90
76333;DHT22;71254;53.010;6.508;2024-02-21T00:08:50;9.60;99.90
76333;DHT22;71254;53.010;6.508;2024-02-21T00:11:16;9.60;99.90
76333;DHT22;71254;53.010;6.508;2024-02-21T00:13:41;9.60;99.90
76333;DHT22;71254;53.010;6.508;2024-02-21T00:16:07;9.60;99.90
76333;DHT22;71254;53.010;6.508;2024-02-21T00:18:32;9.60;99.90
76333;DHT22;71254;53.010;6.508;2024-02-21T00:20:58;9.60;99.90
76333;DHT22;71254;53.010;6.508;2024-02-21T00:23:27;9.60;99.90
76333;DHT22;71254;53.010;6.508;2024-02-21T00:25:55;9.40;99.90
76333;DHT22;71254;53.010;6.508;2024-02-21T00:28:21;9.60;99.90
76333;DHT22;71254;53.010;6.508;2024-02-21T00:30:47;9.50;99.90
76333;DHT22;71254;53.010;6.508;2024-02-21T00:33:14;9.60;99.90
76333;DHT22;71254;53.010;6.508;2024-02-21T00:35:40;9.50;99.90
76333;DHT22;71254;53.010;6.508;2024-02-21T00:38:06;9.50;99.90
76333;DHT22;71254;53.010;6.508;2024-02-21T00:40:31;10.00;99.90
76333;DHT22;71254;53.010;6.508;2024-02-21T00:42:57;9.50;99.90
76333;DHT22;71254;53.010;6.508;2024-02-21T00:45:22;9.60;99.90
76333;DHT22;71254;53.010;6.508;2024-02-21T00:47:54;9.50;99.90
76333;DHT22;71254;53.010;6.508;2024-02-21T00:50:23;9.50;99.90
76333;DHT22;71254;53.010;6.508;2024-02-21T00:52:48;10.40;99.90
76333;DHT22;71254;53.010;6.508;2024-02-21T00:55:14;9.50;99.90
76333;DHT22;71254;53.010;6.508;2024-02-21T00:57:39;9.40;99.90
76333;DHT22;71254;53.010;6.508;2024-02-21T01:00:05;9.40;99.90
76333;DHT22;71254;53.010;6.508;2024-02-21T01:02:32;9.40;99.90
76333;DHT22;71254;53.010;6.508;2024-02-21T01:04:58;9.80;99.90
76333;DHT22;71254;53.010;6.508;2024-02-21T01:07:27;9.30;99.90
76333;DHT22;71254;53.010;6.508;2024-02-21T01:09:52;9.30;99.90
76333;DHT22;71254;53.010;6.508;2024-02-21T01:12:18;9.30;99.90
76333;DHT22;71254;53.010;6.508;2024-02-21T01:14:44;9.30;99.90
76333;DHT22;71254;53.010;6.508;2024-02-21T01:17:15;9.30;99.90
76333;DHT22;71254;53.010;6.508;2024-02-21T01:19:41;9.30;99.90
76333;DHT22;71254;53.010;6.508;2024-02-21T01:22:18;9.30;99.90
76333;DHT22;71254;53.010;6.508;2024-02-21T01:24:44;9.60;99.90
76333;DHT22;71254;53.010;6.508;2024-02-21T01:27:09;9.30;99.90
76333;DHT22;71254;53.010;6.508;2024-02-21T01:29:38;10.50;99.90
76333;DHT22;71254;53.010;6.508;2024-02-21T01:32:04;9.30;99.90
76333;DHT22;71254;53.010;6.508;2024-02-21T01:34:29;9.20;99.90
76333;DHT22;71254;53.010;6.508;2024-02-21T01:36:55;9.20;99.90
76333;DHT22;71254;53.010;6.508;2024-02-21T01:39:20;10.80;99.90
76333;DHT22;71254;53.010;6.508;2024-02-21T01:41:46;9.20;99.90
76333;DHT22;71254;53.010;6.508;2024-02-21T01:44:12;9.20;99.90
76333;DHT22;71254;53.010;6.508;2024-02-21T01:46:38;9.20;99.90
76333;DHT22;71254;53.010;6.508;2024-02-21T01:49:04;9.10;99.90
76333;DHT22;71254;53.010;6.508;2024-02-21T01:51:39;9.10;99.90
76333;DHT22;71254;53.010;6.508;2024-02-21T01:54:05;9.90;99.90
76333;DHT22;71254;53.010;6.508;2024-02-21T01:56:34;9.00;99.90
76333;DHT22;71254;53.010;6.508;2024-02-21T01:58:59;9.00;99.90
76333;DHT22;71254;53.010;6.508;2024-02-21T02:01:25;9.00;99.90
76333;DHT22;71254;53.010;6.508;2024-02-21T02:03:51;8.90;99.90
76333;DHT22;71254;53.010;6.508;2024-02-21T02:06:18;8.90;99.90
76333;DHT22;71254;53.010;6.508;2024-02-21T02:08:43;8.90;99.90
76333;DHT22;71254;53.010;6.508;2024-02-21T02:11:10;8.90;99.90
76333;DHT22;71254;53.010;6.508;2024-02-21T02:13:36;8.90;99.90
76333;DHT22;71254;53.010;6.508;2024-02-21T02:16:01;10.10;99.90
76333;DHT22;71254;53.010;6.508;2024-02-21T02:18:29;8.80;99.90
76333;DHT22;71254;53.010;6.508;2024-02-21T02:21:01;8.90;99.90
76333;DHT22;71254;53.010;6.508;2024-02-21T02:23:30;8.90;99.90
76333;DHT22;71254;53.010;6.508;2024-02-21T02:26:05;8.80;99.90
76333;DHT22;71254;53.010;6.508;2024-02-21T02:28:38;8.90;99.90
76333;DHT22;71254;53.010;6.508;2024-02-21T02:31:12;8.90;99.90
76333;DHT22;71254;53.010;6.508;2024-02-21T02:33:41;8.80;99.90
76333;DHT22;71254;53.010;6.508;2024-02-21T02:36:07;9.40;99.90
76333;DHT22;71254;53.010;6.508;2024-02-21T02:38:39;8.80;99.90
76333;DHT22;71254;53.010;6.508;2024-02-21T02:41:13;8.80;99.90
76333;DHT22;71254;53.010;6.508;2024-02-21T02:43:42;9.60;99.90
76333;DHT22;71254;53.010;6.508;2024-02-21T02:46:10;10.10;99.90
76333;DHT22;71254;53.010;6.508;2024-02-21T02:48:42;8.80;99.90
76333;DHT22;71254;53.010;6.508;2024-02-21T02:51:07;8.80;99.90
76333;DHT22;71254;53.010;6.508;2024-02-21T02:53:33;8.80;99.90
76333;DHT22;71254;53.010;6.508;2024-02-21T02:55:59;8.80;99.90
76333;DHT22;71254;53.010;6.508;2024-02-21T02:58:24;8.80;99.90
76333;DHT22;71254;53.010;6.508;2024-02-21T03:00:50;8.80;99.90
76333;DHT22;71254;53.010;6.508;2024-02-21T03:03:16;9.10;99.90
76333;DHT22;71254;53.010;6.508;2024-02-21T03:05:41;8.80;99.90
76333;DHT22;71254;53.010;6.508;2024-02-21T03:08:07;8.80;99.90
76333;DHT22;71254;53.010;6.508;2024-02-21T03:10:33;8.80;99.90
76333;DHT22;71254;53.010;6.508;2024-02-21T03:12:59;8.80;99.90
76333;DHT22;71254;53.010;6.508;2024-02-21T03:15:25;8.80;99.90
76333;DHT22;71254;53.010;6.508;2024-02-21T03:17:56;8.80;99.90
76333;DHT22;71254;53.010;6.508;2024-02-21T03:20:24;8.80;99.90
76333;DHT22;71254;53.010;6.508;2024-02-21T03:22:50;8.80;99.90
76333;DHT22;71254;53.010;6.508;2024-02-21T03:25:24;8.80;99.90
76333;DHT22;71254;53.010;6.508;2024-02-21T03:27:53;8.80;99.90
76333;DHT22;71254;53.010;6.508;2024-02-21T03:30:21;8.80;99.90
76333;DHT22;71254;53.010;6.508;2024-02-21T03:32:47;8.80;99.90
76333;DHT22;71254;53.010;6.508;2024-02-21T03:35:13;8.80;99.90
76333;DHT22;71254;53.010;6.508;2024-02-21T03:37:45;8.90;99.90
76333;DHT22;71254;53.010;6.508;2024-02-21T03:40:11;8.90;99.90
76333;DHT22;71254;53.010;6.508;2024-02-21T03:42:39;8.90;99.90
76333;DHT22;71254;53.010;6.508;2024-02-21T03:45:08;8.90;99.90
76333;DHT22;71254;53.010;6.508;2024-02-21T03:47:34;8.90;99.90
76333;DHT22;71254;53.010;6.508;2024-02-21T03:50:05;9.50;99.90
76333;DHT22;71254;53.010;6.508;2024-02-21T03:52:31;8.90;99.90
76333;DHT22;71254;53.010;6.508;2024-02-21T03:54:56;8.90;99.90
76333;DHT22;71254;53.010;6.508;2024-02-21T03:57:22;8.80;99.90
76333;DHT22;71254;53.010;6.508;2024-02-21T03:59:54;8.80;99.90
76333;DHT22;71254;53.010;6.508;2024-02-21T04:02:19;8.70;99.90
76333;DHT22;71254;53.010;6.508;2024-02-21T04:04:45;8.80;99.90
76333;DHT22;71254;53.010;6.508;2024-02-21T04:07:14;8.90;99.90
76333;DHT22;71254;53.010;6.508;2024-02-21T04:09:40;8.80;99.90
76333;DHT22;71254;53.010;6.508;2024-02-21T04:12:09;8.90;99.90
76333;DHT22;71254;53.010;6.508;2024-02-21T04:14:35;8.80;99.90
76333;DHT22;71254;53.010;6.508;2024-02-21T04:17:03;8.90;99.90
76333;DHT22;71254;53.010;6.508;2024-02-21T04:19:36;8.90;99.90
76333;DHT22;71254;53.010;6.508;2024-02-21T04:22:02;8.90;99.90
76333;DHT22;71254;53.010;6.508;2024-02-21T04:24:27;8.90;99.90
76333;DHT22;71254;53.010;6.508;2024-02-21T04:26:53;8.90;99.90
76333;DHT22;71254;53.010;6.508;2024-02-21T04:29:18;8.90;99.90
76333;DHT22;71254;53.010;6.508;2024-02-21T04:31:50;8.90;99.90
76333;DHT22;71254;53.010;6.508;2024-02-21T04:34:18;8.90;99.90
76333;DHT22;71254;53.010;6.508;2024-02-21T04:36:44;8.90;99.90
76333;DHT22;71254;53.010;6.508;2024-02-21T04:39:10;8.90;99.90
76333;DHT22;71254;53.010;6.508;2024-02-21T04:41:39;8.90;99.90
76333;DHT22;71254;53.010;6.508;2024-02-21T04:44:05;8.90;99.90
76333;DHT22;71254;53.010;6.508;2024-02-21T04:46:40;8.90;99.90
76333;DHT22;71254;53.010;6.508;2024-02-21T04:49:12;8.90;99.90
76333;DHT22;71254;53.010;6.508;2024-02-21T04:51:40;8.90;99.90
76333;DHT22;71254;53.010;6.508;2024-02-21T04:54:06;8.90;99.90
76333;DHT22;71254;53.010;6.508;2024-02-21T04:56:43;8.90;99.90
76333;DHT22;71254;53.010;6.508;2024-02-21T04:59:11;8.90;99.90
76333;DHT22;71254;53.010;6.508;2024-02-21T05:01:42;9.00;99.90
76333;DHT22;71254;53.010;6.508;2024-02-21T05:04:08;8.90;99.90
76333;DHT22;71254;53.010;6.508;2024-02-21T05:06:40;8.90;99.90
76333;DHT22;71254;53.010;6.508;2024-02-21T05:09:09;8.90;99.90
76333;DHT22;71254;53.010;6.508;2024-02-21T05:11:36;10.20;99.90
76333;DHT22;71254;53.010;6.508;2024-02-21T05:14:03;8.90;99.90
76333;DHT22;71254;53.010;6.508;2024-02-21T05:16:29;8.90;99.90
76333;DHT22;71254;53.010;6.508;2024-02-21T05:18:55;8.90;99.90
76333;DHT22;71254;53.010;6.508;2024-02-21T05:21:24;8.90;99.90
76333;DHT22;71254;53.010;6.508;2024-02-21T05:23:54;8.90;99.90
76333;DHT22;71254;53.010;6.508;2024-02-21T05:26:35;8.90;99.90
76333;DHT22;71254;53.010;6.508;2024-02-21T05:29:01;8.90;99.90
76333;DHT22;71254;53.010;6.508;2024-02-21T05:34:26;10.10;99.90
76333;DHT22;71254;53.010;6.508;2024-02-21T05:36:55;8.90;99.90
76333;DHT22;71254;53.010;6.508;2024-02-21T05:39:20;8.90;99.90
76333;DHT22;71254;53.010;6.508;2024-02-21T05:41:55;8.90;99.90
76333;DHT22;71254;53.010;6.508;2024-02-21T05:44:23;8.90;99.90
76333;DHT22;71254;53.010;6.508;2024-02-21T05:46:49;8.90;99.90
76333;DHT22;71254;53.010;6.508;2024-02-21T05:49:15;8.90;99.90
76333;DHT22;71254;53.010;6.508;2024-02-21T05:51:40;8.90;99.90
76333;DHT22;71254;53.010;6.508;2024-02-21T05:54:06;8.90;99.90
76333;DHT22;71254;53.010;6.508;2024-02-21T05:56:32;8.90;99.90
76333;DHT22;71254;53.010;6.508;2024-02-21T05:58:58;8.90;99.90
76333;DHT22;71254;53.010;6.508;2024-02-21T06:01:25;8.90;99.90
76333;DHT22;71254;53.010;6.508;2024-02-21T06:03:53;8.90;99.90
76333;DHT22;71254;53.010;6.508;2024-02-21T06:06:18;9.70;99.90
76333;DHT22;71254;53.010;6.508;2024-02-21T06:08:44;8.90;99.90
76333;DHT22;71254;53.010;6.508;2024-02-21T06:11:10;8.90;99.90
76333;DHT22;71254;53.010;6.508;2024-02-21T06:13:40;8.90;99.90
76333;DHT22;71254;53.010;6.508;2024-02-21T06:16:09;8.90;99.90
76333;DHT22;71254;53.010;6.508;2024-02-21T06:18:36;8.90;99.90
76333;DHT22;71254;53.010;6.508;2024-02-21T06:21:02;8.90;99.90
76333;DHT22;71254;53.010;6.508;2024-02-21T06:23:31;8.90;99.90
76333;DHT22;71254;53.010;6.508;2024-02-21T06:26:00;8.90;99.90
76333;DHT22;71254;53.010;6.508;2024-02-21T06:28:25;9.40;99.90
76333;DHT22;71254;53.010;6.508;2024-02-21T06:30:52;8.90;99.90
76333;DHT22;71254;53.010;6.508;2024-02-21T06:33:17;8.90;99.90
76333;DHT22;71254;53.010;6.508;2024-02-21T06:35:43;8.90;99.90
76333;DHT22;71254;53.010;6.508;2024-02-21T06:38:14;8.90;99.90
76333;DHT22;71254;53.010;6.508;2024-02-21T06:40:42;8.90;99.90
76333;DHT22;71254;53.010;6.508;2024-02-21T06:43:14;8.90;99.90
76333;DHT22;71254;53.010;6.508;2024-02-21T06:45:39;8.80;99.90
76333;DHT22;71254;53.010;6.508;2024-02-21T06:48:10;8.90;99.90
76333;DHT22;71254;53.010;6.508;2024-02-21T06:50:36;8.90;99.90
76333;DHT22;71254;53.010;6.508;2024-02-21T06:53:07;8.90;99.90
76333;DHT22;71254;53.010;6.508;2024-02-21T06:55:32;8.90;99.90
76333;DHT22;71254;53.010;6.508;2024-02-21T06:57:58;8.90;99.90
76333;DHT22;71254;53.010;6.508;2024-02-21T07:00:24;8.90;99.90
76333;DHT22;71254;53.010;6.508;2024-02-21T07:02:51;8.90;99.90
76333;DHT22;71254;53.010;6.508;2024-02-21T07:05:16;9.70;99.90
76333;DHT22;71254;53.010;6.508;2024-02-21T07:07:42;8.90;99.90
76333;DHT22;71254;53.010;6.508;2024-02-21T07:10:08;8.90;99.90
76333;DHT22;71254;53.010;6.508;2024-02-21T07:12:33;8.90;99.90
76333;DHT22;71254;53.010;6.508;2024-02-21T07:15:01;8.90;99.90
76333;DHT22;71254;53.010;6.508;2024-02-21T07:17:26;8.90;99.90
76333;DHT22;71254;53.010;6.508;2024-02-21T07:19:54;8.90;99.90
76333;DHT22;71254;53.010;6.508;2024-02-21T07:22:22;8.90;99.90
76333;DHT22;71254;53.010;6.508;2024-02-21T07:24:53;8.90;99.90
76333;DHT22;71254;53.010;6.508;2024-02-21T07:27:19;8.90;99.90
76333;DHT22;71254;53.010;6.508;2024-02-21T07:29:44;8.90;99.90
76333;DHT22;71254;53.010;6.508;2024-02-21T07:32:13;8.90;99.90
76333;DHT22;71254;53.010;6.508;2024-02-21T07:34:38;8.90;99.90
76333;DHT22;71254;53.010;6.508;2024-02-21T07:37:04;8.90;99.90
76333;DHT22;71254;53.010;6.508;2024-02-21T07:39:29;9.00;99.90
76333;DHT22;71254;53.010;6.508;2024-02-21T07:42:01;8.90;99.90
76333;DHT22;71254;53.010;6.508;2024-02-21T07:44:32;9.00;99.90
76333;DHT22;71254;53.010;6.508;2024-02-21T07:46:59;9.00;99.90
76333;DHT22;71254;53.010;6.508;2024-02-21T07:49:29;9.00;99.90
76333;DHT22;71254;53.010;6.508;2024-02-21T07:51:55;9.00;99.90
76333;DHT22;71254;53.010;6.508;2024-02-21T07:54:20;9.00;99.90
76333;DHT22;71254;53.010;6.508;2024-02-21T07:56:46;9.00;99.90
76333;DHT22;71254;53.010;6.508;2024-02-21T07:59:15;9.00;99.90
76333;DHT22;71254;53.010;6.508;2024-02-21T08:01:41;9.00;99.90
76333;DHT22;71254;53.010;6.508;2024-02-21T08:04:10;9.00;99.90
76333;DHT22;71254;53.010;6.508;2024-02-21T08:06:35;9.00;99.90
76333;DHT22;71254;53.010;6.508;2024-02-21T08:09:04;9.00;99.90
76333;DHT22;71254;53.010;6.508;2024-02-21T08:11:41;9.00;99.90
76333;DHT22;71254;53.010;6.508;2024-02-21T08:14:10;9.70;99.90
76333;DHT22;71254;53.010;6.508;2024-02-21T08:16:35;9.00;99.90
76333;DHT22;71254;53.010;6.508;2024-02-21T08:19:07;9.00;99.90
76333;DHT22;71254;53.010;6.508;2024-02-21T08:21:32;9.00;99.90
76333;DHT22;71254;53.010;6.508;2024-02-21T08:24:00;9.30;99.90
76333;DHT22;71254;53.010;6.508;2024-02-21T08:26:26;9.00;99.90
76333;DHT22;71254;53.010;6.508;2024-02-21T08:28:56;9.00;99.90
76333;DHT22;71254;53.010;6.508;2024-02-21T08:31:24;9.00;99.90
76333;DHT22;71254;53.010;6.508;2024-02-21T08:33:57;9.00;99.90
76333;DHT22;71254;53.010;6.508;2024-02-21T08:36:44;9.00;99.90
76333;DHT22;71254;53.010;6.508;2024-02-21T08:39:13;9.90;99.90
76333;DHT22;71254;53.010;6.508;2024-02-21T08:41:42;9.10;99.90
76333;DHT22;71254;53.010;6.508;2024-02-21T08:44:10;9.10;99.90
76333;DHT22;71254;53.010;6.508;2024-02-21T08:46:36;9.10;99.90
76333;DHT22;71254;53.010;6.508;2024-02-21T08:49:06;9.10;99.90
76333;DHT22;71254;53.010;6.508;2024-02-21T08:51:34;9.10;99.90
76333;DHT22;71254;53.010;6.508;2024-02-21T08:54:03;9.10;99.90
76333;DHT22;71254;53.010;6.508;2024-02-21T08:56:30;9.80;99.90
76333;DHT22;71254;53.010;6.508;2024-02-21T08:58:56;9.10;99.90
76333;DHT22;71254;53.010;6.508;2024-02-21T09:01:23;9.10;99.90
76333;DHT22;71254;53.010;6.508;2024-02-21T09:03:57;9.10;99.90
76333;DHT22;71254;53.010;6.508;2024-02-21T09:06:23;9.90;99.90
76333;DHT22;71254;53.010;6.508;2024-02-21T09:08:49;9.20;99.90
76333;DHT22;71254;53.010;6.508;2024-02-21T09:11:15;9.20;99.90
76333;DHT22;71254;53.010;6.508;2024-02-21T09:13:41;9.20;99.90
76333;DHT22;71254;53.010;6.508;2024-02-21T09:16:09;9.20;99.90
76333;DHT22;71254;53.010;6.508;2024-02-21T09:18:35;9.20;99.90
76333;DHT22;71254;53.010;6.508;2024-02-21T09:21:00;9.20;99.90
76333;DHT22;71254;53.010;6.508;2024-02-21T09:23:26;9.20;99.90
76333;DHT22;71254;53.010;6.508;2024-02-21T09:25:52;9.20;99.90
76333;DHT22;71254;53.010;6.508;2024-02-21T09:28:20;9.30;99.90
76333;DHT22;71254;53.010;6.508;2024-02-21T09:30:45;9.20;99.90
76333;DHT22;71254;53.010;6.508;2024-02-21T09:33:11;9.20;99.90
76333;DHT22;71254;53.010;6.508;2024-02-21T09:35:37;9.20;99.90
76333;DHT22;71254;53.010;6.508;2024-02-21T09:38:02;9.20;99.90
76333;DHT22;71254;53.010;6.508;2024-02-21T09:40:28;9.20;99.90
76333;DHT22;71254;53.010;6.508;2024-02-21T09:43:02;9.20;99.90
76333;DHT22;71254;53.010;6.508;2024-02-21T09:45:33;9.20;99.90
76333;DHT22;71254;53.010;6.508;2024-02-21T09:50:50;9.20;99.90
76333;DHT22;71254;53.010;6.508;2024-02-21T09:53:18;9.20;99.90
76333;DHT22;71254;53.010;6.508;2024-02-21T09:55:45;9.20;99.90
76333;DHT22;71254;53.010;6.508;2024-02-21T09:58:14;9.30;99.90
76333;DHT22;71254;53.010;6.508;2024-02-21T10:00:40;9.30;99.90
76333;DHT22;71254;53.010;6.508;2024-02-21T10:03:06;9.30;99.90
76333;DHT22;71254;53.010;6.508;2024-02-21T10:05:34;9.30;99.90
76333;DHT22;71254;53.010;6.508;2024-02-21T10:08:01;9.40;99.90
76333;DHT22;71254;53.010;6.508;2024-02-21T10:10:27;9.40;99.90
76333;DHT22;71254;53.010;6.508;2024-02-21T10:12:53;9.40;99.90
76333;DHT22;71254;53.010;6.508;2024-02-21T10:15:24;9.40;99.90
76333;DHT22;71254;53.010;6.508;2024-02-21T10:18:00;9.50;99.90
76333;DHT22;71254;53.010;6.508;2024-02-21T10:20:26;9.50;99.90
76333;DHT22;71254;53.010;6.508;2024-02-21T10:23:05;9.60;99.90
76333;DHT22;71254;53.010;6.508;2024-02-21T10:25:35;9.60;99.90
76333;DHT22;71254;53.010;6.508;2024-02-21T10:28:02;9.60;99.90
76333;DHT22;71254;53.010;6.508;2024-02-21T10:30:28;9.70;99.90
76333;DHT22;71254;53.010;6.508;2024-02-21T10:32:54;9.70;99.90
76333;DHT22;71254;53.010;6.508;2024-02-21T10:35:27;9.80;99.90
76333;DHT22;71254;53.010;6.508;2024-02-21T10:37:55;9.80;99.90
76333;DHT22;71254;53.010;6.508;2024-02-21T10:40:28;9.80;99.90
76333;DHT22;71254;53.010;6.508;2024-02-21T10:42:58;11.00;99.90
76333;DHT22;71254;53.010;6.508;2024-02-21T10:45:49;9.80;99.90
76333;DHT22;71254;53.010;6.508;2024-02-21T10:48:26;9.90;99.90
76333;DHT22;71254;53.010;6.508;2024-02-21T10:56:28;10.10;99.90
76333;DHT22;71254;53.010;6.508;2024-02-21T10:58:57;10.10;99.90
76333;DHT22;71254;53.010;6.508;2024-02-21T11:01:23;10.30;99.90
76333;DHT22;71254;53.010;6.508;2024-02-21T11:03:52;10.30;99.90
76333;DHT22;71254;53.010;6.508;2024-02-21T11:06:20;10.40;99.90
76333;DHT22;71254;53.010;6.508;2024-02-21T11:08:47;10.50;99.90
76333;DHT22;71254;53.010;6.508;2024-02-21T11:11:15;10.50;99.90
76333;DHT22;71254;53.010;6.508;2024-02-21T11:13:46;10.00;99.90
76333;DHT22;71254;53.010;6.508;2024-02-21T11:16:22;11.10;99.90
76333;DHT22;71254;53.010;6.508;2024-02-21T11:18:48;10.60;99.90
76333;DHT22;71254;53.010;6.508;2024-02-21T11:21:15;10.50;99.90
76333;DHT22;71254;53.010;6.508;2024-02-21T11:23:40;10.50;99.90
76333;DHT22;71254;53.010;6.508;2024-02-21T11:26:10;10.10;99.90
76333;DHT22;71254;53.010;6.508;2024-02-21T11:28:36;10.40;99.90
76333;DHT22;71254;53.010;6.508;2024-02-21T11:31:10;10.40;99.90
76333;DHT22;71254;53.010;6.508;2024-02-21T11:33:42;10.30;99.90
76333;DHT22;71254;53.010;6.508;2024-02-21T11:36:09;10.40;99.90
76333;DHT22;71254;53.010;6.508;2024-02-21T11:38:35;10.20;99.90
76333;DHT22;71254;53.010;6.508;2024-02-21T11:41:01;10.20;99.90
76333;DHT22;71254;53.010;6.508;2024-02-21T11:43:26;10.20;99.90
76333;DHT22;71254;53.010;6.508;2024-02-21T11:46:01;10.20;99.90
76333;DHT22;71254;53.010;6.508;2024-02-21T11:48:31;10.20;99.90
76333;DHT22;71254;53.010;6.508;2024-02-21T11:50:57;10.20;99.90
76333;DHT22;71254;53.010;6.508;2024-02-21T11:53:23;10.10;99.90
76333;DHT22;71254;53.010;6.508;2024-02-21T11:55:49;10.10;99.90
76333;DHT22;71254;53.010;6.508;2024-02-21T11:58:16;10.10;99.90
76333;DHT22;71254;53.010;6.508;2024-02-21T12:00:44;10.10;99.90
76333;DHT22;71254;53.010;6.508;2024-02-21T12:03:10;10.10;99.90
76333;DHT22;71254;53.010;6.508;2024-02-21T12:05:36;10.10;99.90
76333;DHT22;71254;53.010;6.508;2024-02-21T12:08:04;10.10;99.90
76333;DHT22;71254;53.010;6.508;2024-02-21T12:10:34;10.10;99.90
76333;DHT22;71254;53.010;6.508;2024-02-21T12:13:27;10.10;99.90
76333;DHT22;71254;53.010;6.508;2024-02-21T12:15:55;10.10;99.90
76333;DHT22;71254;53.010;6.508;2024-02-21T12:18:21;10.20;99.90
76333;DHT22;71254;53.010;6.508;2024-02-21T12:20:48;10.10;99.90
76333;DHT22;71254;53.010;6.508;2024-02-21T12:23:13;10.10;99.90
76333;DHT22;71254;53.010;6.508;2024-02-21T12:25:39;10.20;99.90
76333;DHT22;71254;53.010;6.508;2024-02-21T12:28:07;10.20;99.90
76333;DHT22;71254;53.010;6.508;2024-02-21T12:30:33;10.20;99.90
76333;DHT22;71254;53.010;6.508;2024-02-21T12:33:03;10.10;99.90
76333;DHT22;71254;53.010;6.508;2024-02-21T12:35:32;10.40;99.90
76333;DHT22;71254;53.010;6.508;2024-02-21T12:37:58;10.40;99.90
76333;DHT22;71254;53.010;6.508;2024-02-21T12:40:25;10.40;99.90
76333;DHT22;71254;53.010;6.508;2024-02-21T12:42:51;10.40;99.90
76333;DHT22;71254;53.010;6.508;2024-02-21T12:45:17;10.40;99.90
76333;DHT22;71254;53.010;6.508;2024-02-21T12:47:43;11.20;99.90
76333;DHT22;71254;53.010;6.508;2024-02-21T12:50:09;10.40;99.90
76333;DHT22;71254;53.010;6.508;2024-02-21T12:52:34;10.40;99.90
76333;DHT22;71254;53.010;6.508;2024-02-21T12:55:03;10.40;99.90
76333;DHT22;71254;53.010;6.508;2024-02-21T12:57:32;10.50;99.90
76333;DHT22;71254;53.010;6.508;2024-02-21T12:59:57;10.30;99.90
76333;DHT22;71254;53.010;6.508;2024-02-21T13:02:23;10.20;99.90
76333;DHT22;71254;53.010;6.508;2024-02-21T13:04:48;10.20;99.90
76333;DHT22;71254;53.010;6.508;2024-02-21T13:07:14;10.30;99.90
76333;DHT22;71254;53.010;6.508;2024-02-21T13:09:39;11.70;99.90
76333;DHT22;71254;53.010;6.508;2024-02-21T13:12:06;10.30;99.90
76333;DHT22;71254;53.010;6.508;2024-02-21T13:14:31;10.40;99.90
76333;DHT22;71254;53.010;6.508;2024-02-21T13:16:58;10.40;99.90
76333;DHT22;71254;53.010;6.508;2024-02-21T13:19:24;10.50;99.90
76333;DHT22;71254;53.010;6.508;2024-02-21T13:21:55;10.50;99.90
76333;DHT22;71254;53.010;6.508;2024-02-21T13:24:21;10.50;99.90
76333;DHT22;71254;53.010;6.508;2024-02-21T13:26:46;10.60;99.90
76333;DHT22;71254;53.010;6.508;2024-02-21T13:29:12;10.60;99.90
76333;DHT22;71254;53.010;6.508;2024-02-21T13:31:38;10.60;99.90
76333;DHT22;71254;53.010;6.508;2024-02-21T13:34:03;10.60;99.90
76333;DHT22;71254;53.010;6.508;2024-02-21T13:36:29;10.70;99.90
76333;DHT22;71254;53.010;6.508;2024-02-21T13:38:59;10.70;99.90
76333;DHT22;71254;53.010;6.508;2024-02-21T13:41:24;10.70;99.90
76333;DHT22;71254;53.010;6.508;2024-02-21T13:43:50;10.70;99.90
76333;DHT22;71254;53.010;6.508;2024-02-21T13:46:19;10.80;99.90
76333;DHT22;71254;53.010;6.508;2024-02-21T13:48:45;11.00;99.90
76333;DHT22;71254;53.010;6.508;2024-02-21T13:51:10;11.30;99.90
76333;DHT22;71254;53.010;6.508;2024-02-21T13:53:38;10.80;99.90
76333;DHT22;71254;53.010;6.508;2024-02-21T13:56:08;10.70;99.90
76333;DHT22;71254;53.010;6.508;2024-02-21T13:58:34;10.70;99.90
76333;DHT22;71254;53.010;6.508;2024-02-21T14:01:04;10.60;99.90
76333;DHT22;71254;53.010;6.508;2024-02-21T14:03:29;10.60;99.90
76333;DHT22;71254;53.010;6.508;2024-02-21T14:05:57;10.60;99.90
76333;DHT22;71254;53.010;6.508;2024-02-21T14:08:23;10.50;99.90
76333;DHT22;71254;53.010;6.508;2024-02-21T14:10:52;11.20;99.90
76333;DHT22;71254;53.010;6.508;2024-02-21T14:13:17;10.50;99.90
76333;DHT22;71254;53.010;6.508;2024-02-21T14:15:48;10.40;99.90
76333;DHT22;71254;53.010;6.508;2024-02-21T14:18:15;11.40;99.90
76333;DHT22;71254;53.010;6.508;2024-02-21T14:20:42;10.30;99.90
76333;DHT22;71254;53.010;6.508;2024-02-21T14:23:08;10.30;99.90
76333;DHT22;71254;53.010;6.508;2024-02-21T14:25:33;10.30;99.90
76333;DHT22;71254;53.010;6.508;2024-02-21T14:28:02;10.20;99.90
76333;DHT22;71254;53.010;6.508;2024-02-21T14:30:27;10.20;99.90
76333;DHT22;71254;53.010;6.508;2024-02-21T14:32:58;10.60;99.90
76333;DHT22;71254;53.010;6.508;2024-02-21T14:35:27;10.20;99.90
76333;DHT22;71254;53.010;6.508;2024-02-21T14:37:55;10.10;99.90
76333;DHT22;71254;53.010;6.508;2024-02-21T14:40:22;11.40;99.90
76333;DHT22;71254;53.010;6.508;2024-02-21T14:42:50;10.00;99.90
76333;DHT22;71254;53.010;6.508;2024-02-21T14:45:20;10.00;99.90
76333;DHT22;71254;53.010;6.508;2024-02-21T14:47:51;10.00;99.90
76333;DHT22;71254;53.010;6.508;2024-02-21T14:50:16;9.90;99.90
76333;DHT22;71254;53.010;6.508;2024-02-21T14:52:42;9.90;99.90
76333;DHT22;71254;53.010;6.508;2024-02-21T14:55:09;9.90;99.90
76333;DHT22;71254;53.010;6.508;2024-02-21T14:57:35;10.00;99.90
76333;DHT22;71254;53.010;6.508;2024-02-21T15:00:01;9.90;99.90
76333;DHT22;71254;53.010;6.508;2024-02-21T15:02:28;9.90;99.90
76333;DHT22;71254;53.010;6.508;2024-02-21T15:04:56;9.80;99.90
76333;DHT22;71254;53.010;6.508;2024-02-21T15:07:21;10.90;99.90
76333;DHT22;71254;53.010;6.508;2024-02-21T15:09:51;9.80;99.90
76333;DHT22;71254;53.010;6.508;2024-02-21T15:12:17;9.80;99.90
76333;DHT22;71254;53.010;6.508;2024-02-21T15:14:43;9.80;99.90
76333;DHT22;71254;53.010;6.508;2024-02-21T15:17:11;9.80;99.90
76333;DHT22;71254;53.010;6.508;2024-02-21T15:19:38;9.80;99.90
76333;DHT22;71254;53.010;6.508;2024-02-21T15:22:07;9.80;99.90
76333;DHT22;71254;53.010;6.508;2024-02-21T15:24:32;9.70;99.90
76333;DHT22;71254;53.010;6.508;2024-02-21T15:26:59;9.70;99.90
76333;DHT22;71254;53.010;6.508;2024-02-21T15:29:24;9.70;99.90
76333;DHT22;71254;53.010;6.508;2024-02-21T15:31:50;9.70;99.90
76333;DHT22;71254;53.010;6.508;2024-02-21T15:34:16;9.70;99.90
76333;DHT22;71254;53.010;6.508;2024-02-21T15:36:42;9.70;99.90
76333;DHT22;71254;53.010;6.508;2024-02-21T15:39:08;9.70;99.90
76333;DHT22;71254;53.010;6.508;2024-02-21T15:41:38;9.70;99.90
76333;DHT22;71254;53.010;6.508;2024-02-21T15:44:04;9.70;99.90
76333;DHT22;71254;53.010;6.508;2024-02-21T15:46:30;9.70;99.90
76333;DHT22;71254;53.010;6.508;2024-02-21T15:49:03;9.70;99.90
76333;DHT22;71254;53.010;6.508;2024-02-21T15:51:31;10.90;99.90
76333;DHT22;71254;53.010;6.508;2024-02-21T15:53:59;9.70;99.90
76333;DHT22;71254;53.010;6.508;2024-02-21T15:56:25;9.70;99.90